Time;durP1;ratioP1;P1;durP2;ratioP2;P2;SDS_P1;SDS_P2;PMS_P1;PMS_P2;Temp;Humidity;BMP_temperature;BMP_pressure;BME280_temperature;BME280_humidity;BME280_pressure;Samples;Min_cycle;Max_cycle;Signal;HPM_P1;HPM_P2
2021/12/07 05:02:38;;;;;;;3.40;2.00;;;2.90;99.90;;;;;;4876843;28;91028;-75
2021/12/07 05:05:05;;;;;;;2.50;1.70;;;2.90;99.90;;;;;;4880055;28;89453;-76
2021/12/07 05:07:38;;;;;;;4.20;2.10;;;3.00;99.90;;;;;;4882506;28;89388;-75
2021/12/07 05:10:15;;;;;;;5.38;2.40;;;3.00;99.90;;;;;;4882249;28;92199;-75
2021/12/07 05:40:13;;;;;;;6.72;2.35;;;3.20;99.90;;;;;;4864061;29;89311;-75
2021/12/07 05:42:40;;;;;;;6.95;2.10;;;3.20;99.90;;;;;;4863418;29;92514;-78
2021/12/07 05:45:09;;;;;;;6.85;2.40;;;3.20;99.90;;;;;;4864788;29;90541;-75
2021/12/07 05:47:34;;;;;;;8.25;2.70;;;3.30;99.90;;;;;;4864217;29;89383;-77
2021/12/07 05:50:01;;;;;;;5.80;2.30;;;3.30;99.90;;;;;;4864537;28;89373;-78
2021/12/07 05:52:26;;;;;;;7.53;2.60;;;3.20;99.90;;;;;;4863732;29;90105;-75
2021/12/07 05:54:52;;;;;;;7.03;2.97;;;3.10;99.90;;;;;;4862841;29;89198;-75
2021/12/07 05:57:18;;;;;;;6.00;2.30;;;3.10;99.90;;;;;;4864416;29;90272;-76
2021/12/07 05:59:44;;;;;;;7.40;3.30;;;3.10;99.90;;;;;;4862294;29;95434;-75
2021/12/07 06:02:10;;;;;;;7.13;2.60;;;3.10;99.90;;;;;;4862460;29;96623;-78
2021/12/07 06:04:36;;;;;;;8.32;3.28;;;3.10;99.90;;;;;;4862002;28;94425;-76
2021/12/07 06:07:01;;;;;;;8.50;3.20;;;3.10;99.90;;;;;;4861803;29;94560;-76
2021/12/07 06:09:27;;;;;;;5.47;3.33;;;3.10;99.90;;;;;;4862653;29;97362;-78
2021/12/07 06:11:54;;;;;;;5.43;2.63;;;3.10;99.90;;;;;;4863785;29;97440;-77
2021/12/07 06:14:21;;;;;;;7.38;3.10;;;3.20;99.90;;;;;;4865379;29;94414;-77
2021/12/07 06:16:47;;;;;;;6.70;3.03;;;3.20;99.90;;;;;;4863893;28;94492;-76
2021/12/07 06:19:13;;;;;;;6.80;2.88;;;3.20;99.90;;;;;;4863962;28;96058;-78
2021/12/07 06:21:39;;;;;;;6.82;2.90;;;3.10;99.90;;;;;;4860645;29;94877;-78
2021/12/07 06:24:05;;;;;;;7.32;3.10;;;3.20;99.90;;;;;;4861321;28;94361;-78
2021/12/07 06:26:33;;;;;;;9.57;3.60;;;3.10;99.90;;;;;;4861785;28;93862;-77
2021/12/07 06:28:58;;;;;;;9.20;3.22;;;3.00;99.90;;;;;;4859594;29;97765;-77
2021/12/07 06:31:24;;;;;;;9.70;3.13;;;3.00;99.90;;;;;;4860663;29;95331;-78
2021/12/07 06:33:49;;;;;;;6.47;3.13;;;3.00;99.90;;;;;;4860679;28;95464;-77
2021/12/07 06:36:15;;;;;;;9.23;3.40;;;2.90;99.90;;;;;;4860956;29;94939;-78
2021/12/07 06:38:42;;;;;;;12.40;3.50;;;2.80;99.90;;;;;;4860898;29;95251;-77
2021/12/07 06:41:07;;;;;;;5.88;2.97;;;2.80;99.90;;;;;;4860813;28;95195;-77
2021/12/07 06:43:33;;;;;;;8.38;3.42;;;2.90;99.90;;;;;;4861184;28;94358;-77
2021/12/07 06:45:59;;;;;;;7.90;3.17;;;2.90;99.90;;;;;;4859484;29;94551;-78
2021/12/07 06:48:25;;;;;;;11.38;3.42;;;2.90;99.90;;;;;;4860918;28;94411;-75
2021/12/07 06:50:51;;;;;;;8.80;3.50;;;2.90;99.90;;;;;;4860282;29;96127;-76
2021/12/07 06:53:17;;;;;;;10.52;3.20;;;2.90;99.90;;;;;;4861044;29;94429;-75
2021/12/07 06:55:42;;;;;;;6.68;3.10;;;2.90;99.90;;;;;;4860813;28;94808;-75
2021/12/07 06:58:08;;;;;;;8.55;3.00;;;3.00;99.90;;;;;;4858690;29;98222;-76
2021/12/07 07:00:37;;;;;;;9.02;3.03;;;3.10;99.90;;;;;;4860304;29;95178;-76
2021/12/07 07:03:03;;;;;;;8.23;3.10;;;3.10;99.90;;;;;;4859367;29;94479;-76
2021/12/07 07:05:29;;;;;;;9.27;3.00;;;3.10;99.90;;;;;;4860311;29;94534;-75
2021/12/07 07:07:56;;;;;;;10.55;2.85;;;3.20;99.90;;;;;;4859301;29;96937;-76
2021/12/07 07:10:22;;;;;;;5.55;3.03;;;3.30;99.90;;;;;;4859831;29;94784;-76
2021/12/07 07:12:48;;;;;;;6.97;3.00;;;3.40;99.90;;;;;;4860874;29;94508;-76
2021/12/07 07:15:15;;;;;;;10.95;3.00;;;3.50;99.90;;;;;;4861076;28;94079;-76
2021/12/07 07:17:41;;;;;;;8.75;2.83;;;3.50;99.90;;;;;;4860378;28;96676;-76
2021/12/07 07:20:10;;;;;;;7.22;2.60;;;3.60;99.90;;;;;;4862349;29;94615;-78
2021/12/07 07:22:36;;;;;;;9.32;2.72;;;3.70;99.90;;;;;;4879201;29;95356;-76
2021/12/07 07:25:04;;;;;;;8.02;2.75;;;3.70;99.90;;;;;;4874737;28;94520;-76
2021/12/07 07:27:29;;;;;;;9.85;2.80;;;3.70;99.90;;;;;;4860019;28;98865;-76
2021/12/07 07:29:55;;;;;;;7.20;2.58;;;3.70;99.90;;;;;;4857858;29;97504;-77
2021/12/07 07:32:21;;;;;;;5.22;1.90;;;3.70;99.90;;;;;;4858573;29;94541;-76
2021/12/07 07:34:46;;;;;;;5.63;2.10;;;3.70;99.90;;;;;;4859987;29;94524;-76
2021/12/07 07:37:12;;;;;;;5.82;2.20;;;3.80;99.90;;;;;;4859989;29;95652;-76
2021/12/07 07:39:39;;;;;;;7.97;2.42;;;3.80;99.90;;;;;;4860560;28;94854;-77
2021/12/07 07:42:05;;;;;;;4.93;2.75;;;3.80;99.90;;;;;;4860229;28;94588;-76
2021/12/07 07:44:30;;;;;;;8.85;2.42;;;3.70;99.90;;;;;;4859946;28;94585;-76
2021/12/07 07:46:56;;;;;;;6.50;2.13;;;3.80;99.90;;;;;;4859133;28;96152;-76
2021/12/07 07:49:21;;;;;;;5.15;1.90;;;3.80;99.90;;;;;;4859634;29;95890;-76
2021/12/07 07:51:47;;;;;;;8.07;2.40;;;3.80;99.90;;;;;;4860136;28;95139;-78
2021/12/07 07:54:14;;;;;;;8.70;2.47;;;3.80;99.90;;;;;;4859577;29;94513;-77
2021/12/07 07:56:40;;;;;;;5.40;1.90;;;3.70;99.90;;;;;;4859683;28;95311;-76
2021/12/07 07:59:05;;;;;;;11.07;3.67;;;3.70;99.90;;;;;;4860061;28;94456;-75
2021/12/07 08:01:31;;;;;;;7.55;2.47;;;3.80;99.90;;;;;;4859821;28;94638;-77
2021/12/07 08:04:00;;;;;;;12.50;2.97;;;3.80;99.90;;;;;;4858539;29;93938;-76
2021/12/07 08:06:26;;;;;;;10.02;2.65;;;3.80;99.90;;;;;;4859378;29;95552;-76
2021/12/07 08:08:51;;;;;;;8.00;2.50;;;3.90;99.90;;;;;;4859718;29;95324;-76
2021/12/07 08:11:17;;;;;;;7.88;2.50;;;3.90;99.90;;;;;;4859634;28;95412;-76
2021/12/07 08:13:43;;;;;;;7.75;3.28;;;3.90;99.90;;;;;;4859433;28;94535;-76
2021/12/07 08:16:15;;;;;;;5.15;2.30;;;3.90;99.90;;;;;;4859309;29;95102;-75
2021/12/07 08:18:46;;;;;;;11.27;2.90;;;4.00;99.90;;;;;;4858502;29;96608;-77
2021/12/07 08:21:12;;;;;;;9.73;2.20;;;4.00;99.90;;;;;;4859654;29;94346;-75
2021/12/07 08:23:39;;;;;;;6.65;1.95;;;4.10;99.90;;;;;;4858333;29;94548;-76
2021/12/07 08:26:06;;;;;;;6.80;2.50;;;4.20;99.90;;;;;;4842301;29;98799;-76
2021/12/07 08:28:32;;;;;;;6.95;1.80;;;4.10;99.90;;;;;;4848454;29;94425;-75
2021/12/07 08:30:58;;;;;;;4.43;2.20;;;4.20;99.90;;;;;;4845521;29;94459;-77
2021/12/07 08:33:24;;;;;;;6.35;2.15;;;4.20;99.90;;;;;;4855191;29;94876;-77
2021/12/07 08:35:50;;;;;;;3.92;1.67;;;4.20;99.90;;;;;;4843888;29;95478;-78
2021/12/07 08:38:16;;;;;;;8.65;2.50;;;4.30;99.90;;;;;;4853422;29;95002;-76
2021/12/07 08:40:42;;;;;;;9.88;2.40;;;4.30;99.90;;;;;;4859033;29;94460;-76
2021/12/07 08:43:12;;;;;;;5.90;2.25;;;4.30;99.90;;;;;;4847971;29;94723;-76
2021/12/07 08:45:40;;;;;;;8.93;2.55;;;4.40;99.90;;;;;;4858522;29;95150;-76
2021/12/07 08:48:06;;;;;;;9.98;2.95;;;4.40;99.90;;;;;;4849619;29;97739;-76
2021/12/07 08:50:33;;;;;;;7.50;2.40;;;4.40;99.90;;;;;;4852236;28;94353;-77
2021/12/07 08:53:03;;;;;;;12.00;2.55;;;4.40;99.90;;;;;;4856707;29;93673;-77
2021/12/07 09:01:00;;;;;;;5.90;1.83;;;4.50;99.90;;;;;;4856036;29;95382;-77
2021/12/07 09:03:26;;;;;;;9.73;2.15;;;4.60;99.90;;;;;;4858974;28;94491;-77
2021/12/07 09:05:52;;;;;;;5.25;2.15;;;4.50;99.90;;;;;;4857854;29;95246;-76
2021/12/07 09:08:18;;;;;;;6.47;2.30;;;4.50;99.90;;;;;;4860507;29;94440;-76
2021/12/07 09:10:43;;;;;;;6.55;2.35;;;4.60;99.90;;;;;;4850421;29;94381;-77
2021/12/07 09:13:09;;;;;;;5.75;2.05;;;4.60;99.90;;;;;;4833310;29;96799;-76
2021/12/07 09:15:35;;;;;;;6.97;2.05;;;4.60;99.90;;;;;;4847115;29;95708;-77
2021/12/07 09:18:03;;;;;;;8.80;1.98;;;4.70;99.90;;;;;;4859422;29;93720;-79
2021/12/07 09:20:29;;;;;;;6.90;2.03;;;4.90;99.90;;;;;;4860467;29;94671;-76
2021/12/07 09:22:56;;;;;;;11.23;2.03;;;5.00;99.90;;;;;;4862935;29;94430;-77
2021/12/07 09:25:21;;;;;;;8.07;2.20;;;5.10;99.90;;;;;;4861903;29;96289;-77
2021/12/07 09:27:47;;;;;;;8.20;2.80;;;5.20;99.90;;;;;;4860238;29;98940;-76
2021/12/07 09:30:17;;;;;;;6.88;2.40;;;5.30;99.90;;;;;;4861104;29;94786;-75
2021/12/07 09:32:44;;;;;;;6.88;2.28;;;5.40;99.90;;;;;;4861514;29;94459;-78
2021/12/07 09:35:11;;;;;;;6.60;1.75;;;5.30;99.90;;;;;;4860947;29;97826;-78
2021/12/07 09:37:37;;;;;;;6.63;1.80;;;5.20;99.90;;;;;;4862885;28;94363;-77
2021/12/07 09:40:06;;;;;;;7.93;1.92;;;5.20;99.90;;;;;;4860022;28;94476;-80
2021/12/07 09:42:32;;;;;;;18.75;3.08;;;5.20;99.90;;;;;;4861284;28;94724;-76
2021/12/07 09:44:58;;;;;;;7.68;1.80;;;5.20;99.90;;;;;;4855244;29;95435;-76
2021/12/07 09:47:24;;;;;;;6.70;1.75;;;5.20;99.90;;;;;;4845793;29;95446;-77
2021/12/07 09:49:50;;;;;;;23.98;3.38;;;5.20;99.90;;;;;;4859773;28;95513;-77
2021/12/07 09:52:16;;;;;;;8.80;1.85;;;5.30;99.90;;;;;;4861037;29;94675;-79
2021/12/07 09:54:42;;;;;;;7.75;2.00;;;5.40;99.90;;;;;;4850583;29;95527;-77
2021/12/07 09:57:07;;;;;;;5.57;1.92;;;5.40;99.90;;;;;;4839959;29;98349;-77
2021/12/07 09:59:33;;;;;;;7.15;1.90;;;5.50;99.90;;;;;;4843462;29;94442;-76
2021/12/07 10:01:58;;;;;;;12.57;1.90;;;5.60;99.90;;;;;;4840991;29;94467;-76
2021/12/07 10:04:27;;;;;;;5.78;1.52;;;5.60;99.90;;;;;;4841422;29;97241;-77
2021/12/07 10:06:54;;;;;;;7.35;2.00;;;5.60;99.90;;;;;;4843998;29;97996;-77
2021/12/07 10:09:20;;;;;;;3.55;1.48;;;5.60;99.90;;;;;;4840770;29;94894;-77
2021/12/07 10:11:48;;;;;;;8.98;1.65;;;5.60;99.90;;;;;;4854272;29;94620;-78
2021/12/07 10:14:14;;;;;;;9.93;1.70;;;5.60;99.90;;;;;;4860187;28;97886;-78
2021/12/07 10:16:45;;;;;;;6.32;1.80;;;5.60;99.90;;;;;;4852119;29;95900;-78
2021/12/07 10:19:11;;;;;;;13.55;1.98;;;5.70;99.90;;;;;;4857847;28;94457;-77
2021/12/07 10:21:41;;;;;;;10.77;1.95;;;5.70;99.90;;;;;;4852729;29;94609;-77
2021/12/07 10:24:10;;;;;;;6.78;1.48;;;5.70;99.90;;;;;;4855764;29;96613;-77
2021/12/07 10:26:39;;;;;;;4.90;1.60;;;5.60;99.90;;;;;;4851529;29;95042;-77
2021/12/07 10:29:17;;;;;;;8.20;1.85;;;5.60;99.90;;;;;;4859384;29;94451;-77
2021/12/07 10:31:53;;;;;;;8.32;2.20;;;5.60;99.90;;;;;;4861195;28;93682;-77
2021/12/07 10:34:25;;;;;;;5.80;1.90;;;5.60;99.90;;;;;;4858672;29;98783;-77
2021/12/07 10:37:13;;;;;;;10.00;2.17;;;5.60;99.90;;;;;;4879473;28;96990;-78
2021/12/07 10:39:41;;;;;;;7.63;1.98;;;5.70;99.90;;;;;;4885859;28;94773;-77
2021/12/07 10:42:13;;;;;;;7.25;1.75;;;5.70;99.90;;;;;;4872240;29;94332;-77
2021/12/07 10:44:40;;;;;;;7.35;2.00;;;5.70;99.90;;;;;;4860714;28;95282;-77
2021/12/07 10:47:28;;;;;;;5.60;1.75;;;5.80;99.90;;;;;;4860546;29;94590;-77
2021/12/07 10:49:58;;;;;;;6.03;2.22;;;5.80;99.90;;;;;;4861064;29;94367;-77
2021/12/07 10:52:35;;;;;;;6.32;2.10;;;5.90;99.90;;;;;;4860480;29;94532;-77
2021/12/07 10:55:15;;;;;;;7.72;2.80;;;6.10;99.90;;;;;;4860316;28;94580;-77
2021/12/07 10:57:53;;;;;;;4.95;1.65;;;6.20;99.90;;;;;;4859527;29;97585;-76
2021/12/07 11:00:24;;;;;;;9.43;1.83;;;6.10;99.90;;;;;;4860917;29;94462;-78
2021/12/07 11:03:00;;;;;;;6.03;2.00;;;6.10;99.90;;;;;;4860239;28;94327;-77
2021/12/07 11:05:50;;;;;;;7.97;2.63;;;6.10;99.90;;;;;;4859408;29;96714;-77
2021/12/07 11:08:19;;;;;;;9.73;1.75;;;6.00;99.90;;;;;;4844756;29;96563;-78
2021/12/07 11:10:48;;;;;;;6.35;2.20;;;6.00;99.90;;;;;;4854551;29;94433;-77
2021/12/07 11:13:21;;;;;;;6.53;1.90;;;5.80;99.90;;;;;;4849298;29;94857;-77
2021/12/07 11:15:50;;;;;;;8.38;1.70;;;5.70;99.90;;;;;;4847501;29;95095;-77
2021/12/07 11:18:18;;;;;;;3.65;1.85;;;5.70;99.90;;;;;;4854935;29;96956;-76
2021/12/07 11:20:43;;;;;;;4.90;1.52;;;5.70;99.90;;;;;;4845257;29;94360;-76
2021/12/07 11:23:16;;;;;;;6.35;1.38;;;5.60;99.90;;;;;;4851263;29;93738;-76
2021/12/07 11:31:37;;;;;;;5.85;1.52;;;5.70;99.90;;;;;;4859321;29;95556;-79
2021/12/07 11:34:08;;;;;;;8.57;1.70;;;5.70;99.90;;;;;;4845208;29;94622;-80
2021/12/07 11:36:43;;;;;;;7.30;1.70;;;5.80;99.90;;;;;;4856142;29;95654;-79
2021/12/07 11:39:36;;;;;;;11.90;2.65;;;5.90;99.90;;;;;;4842995;29;96991;-76
2021/12/07 11:42:10;;;;;;;20.88;2.55;;;6.00;99.90;;;;;;4839821;29;94403;-77
2021/12/07 11:44:51;;;;;;;5.70;1.88;;;6.10;99.90;;;;;;4839856;29;94618;-77
2021/12/07 11:47:22;;;;;;;7.60;2.10;;;6.20;99.90;;;;;;4855564;29;98324;-76
2021/12/07 11:49:48;;;;;;;5.97;1.92;;;6.10;99.90;;;;;;4840241;29;97748;-76
2021/12/07 11:52:14;;;;;;;17.05;2.42;;;6.20;99.90;;;;;;4841267;29;94550;-76
2021/12/07 11:54:42;;;;;;;8.60;1.90;;;6.20;99.90;;;;;;4839548;29;94542;-77
2021/12/07 11:57:13;;;;;;;8.10;2.28;;;6.10;99.90;;;;;;4840320;29;96571;-77
2021/12/07 11:59:39;;;;;;;8.30;1.75;;;6.00;99.90;;;;;;4841444;29;97237;-78
2021/12/07 12:02:05;;;;;;;14.48;2.92;;;5.90;99.90;;;;;;4837467;29;94696;-77
2021/12/07 12:04:31;;;;;;;8.80;2.00;;;5.80;99.90;;;;;;4853902;29;94858;-78
2021/12/07 12:06:58;;;;;;;6.63;1.80;;;5.70;99.90;;;;;;4841508;29;95323;-75
2021/12/07 12:09:25;;;;;;;6.40;1.98;;;5.80;99.90;;;;;;4840569;29;94772;-75
2021/12/07 12:12:24;;;;;;;5.25;1.55;;;5.80;99.90;;;;;;4840836;29;94535;-74
2021/12/07 12:15:11;;;;;;;9.68;2.00;;;5.80;99.90;;;;;;4840438;29;93620;-75
2021/12/07 12:17:46;;;;;;;6.10;2.13;;;5.70;99.90;;;;;;4840135;29;95721;-76
2021/12/07 12:20:19;;;;;;;8.77;1.90;;;5.80;99.90;;;;;;4841573;29;95001;-79
2021/12/07 12:22:54;;;;;;;10.10;1.95;;;5.90;99.90;;;;;;4839128;29;95329;-75
2021/12/07 12:25:22;;;;;;;7.53;1.85;;;5.90;99.90;;;;;;4851916;29;94550;-75
2021/12/07 12:27:50;;;;;;;7.40;2.13;;;5.90;99.90;;;;;;4859204;28;94458;-78
2021/12/07 12:30:20;;;;;;;12.27;2.00;;;6.00;99.90;;;;;;4858879;28;94876;-77
2021/12/07 12:32:53;;;;;;;10.60;1.98;;;6.00;99.90;;;;;;4859575;29;94676;-76
2021/12/07 12:35:45;;;;;;;5.10;1.65;;;6.20;99.90;;;;;;4857634;29;94520;-77
2021/12/07 12:38:27;;;;;;;7.32;1.90;;;6.40;99.90;;;;;;4864456;28;97087;-77
2021/12/07 12:41:02;;;;;;;8.90;2.13;;;6.60;99.90;;;;;;4859291;29;95228;-77
2021/12/07 12:43:45;;;;;;;12.00;2.20;;;6.70;99.90;;;;;;4861780;29;94724;-77
2021/12/07 12:46:31;;;;;;;11.13;2.58;;;6.90;99.90;;;;;;4874553;28;94466;-76
2021/12/07 12:49:06;;;;;;;11.60;2.42;;;6.90;99.90;;;;;;4859592;29;96231;-81
2021/12/07 12:51:43;;;;;;;9.07;2.30;;;7.00;99.90;;;;;;4859538;28;96343;-77
2021/12/07 12:54:09;;;;;;;14.25;2.22;;;7.20;99.90;;;;;;4845054;29;94539;-76
2021/12/07 12:56:36;;;;;;;10.10;2.15;;;7.20;99.90;;;;;;4860442;28;94506;-79
2021/12/07 12:59:05;;;;;;;5.22;1.77;;;7.10;99.90;;;;;;4859269;28;94510;-77
2021/12/07 13:01:33;;;;;;;5.80;1.63;;;6.90;99.90;;;;;;4857850;29;94767;-76
2021/12/07 13:04:28;;;;;;;6.07;1.95;;;6.90;99.90;;;;;;4858534;29;94421;-75
2021/12/07 13:07:23;;;;;;;7.90;2.10;;;6.80;99.90;;;;;;4859354;29;93716;-75
2021/12/07 13:09:46;;;;;;;6.60;2.40;;;6.80;99.90;;;;;;4858227;28;96674;-76
2021/12/07 13:12:20;;;;;;;10.15;2.67;;;6.80;99.90;;;;;;4842670;28;96417;-76
2021/12/07 13:14:48;;;;;;;9.13;2.30;;;6.70;99.90;;;;;;4851280;28;95637;-76
2021/12/07 13:17:16;;;;;;;6.78;2.10;;;6.60;99.90;;;;;;4843933;29;94556;-76
2021/12/07 13:20:04;;;;;;;6.15;1.98;;;6.60;99.90;;;;;;4856178;29;95094;-75
2021/12/07 13:22:46;;;;;;;7.03;2.60;;;6.70;99.90;;;;;;4855271;29;94457;-75
2021/12/07 13:25:25;;;;;;;4.00;2.28;;;6.70;99.90;;;;;;4858505;28;94397;-75
2021/12/07 13:28:14;;;;;;;5.80;1.67;;;6.80;99.90;;;;;;4854911;28;94542;-78
2021/12/07 13:30:46;;;;;;;12.23;2.22;;;6.80;99.90;;;;;;4843134;29;97233;-75
2021/12/07 13:33:29;;;;;;;6.90;1.92;;;6.80;99.90;;;;;;4855320;29;95289;-75
2021/12/07 13:35:55;;;;;;;9.45;2.15;;;6.80;99.90;;;;;;4853818;29;94530;-75
2021/12/07 13:38:26;;;;;;;6.82;2.55;;;6.80;99.90;;;;;;4861197;29;94618;-75
2021/12/07 13:41:13;;;;;;;5.80;2.20;;;6.90;99.90;;;;;;4845081;29;95874;-75
2021/12/07 13:43:39;;;;;;;9.35;2.97;;;7.00;99.90;;;;;;4850861;29;96256;-75
2021/12/07 13:46:13;;;;;;;15.20;3.50;;;7.00;99.90;;;;;;4855292;29;94376;-76
2021/12/07 13:48:44;;;;;;;9.00;3.47;;;7.20;99.90;;;;;;4845497;29;94581;-76
2021/12/07 13:51:11;;;;;;;9.63;2.00;;;7.50;99.90;;;;;;4854967;28;95064;-75
2021/12/07 13:53:39;;;;;;;9.18;1.90;;;7.50;99.90;;;;;;4855069;29;94458;-76
2021/12/07 13:56:06;;;;;;;4.95;1.60;;;7.50;99.90;;;;;;4862810;28;94502;-75
2021/12/07 13:58:57;;;;;;;8.90;2.20;;;7.40;99.90;;;;;;4868891;29;93708;-75
2021/12/07 14:01:27;;;;;;;6.75;2.10;;;7.30;99.90;;;;;;4860219;29;95612;-76
2021/12/07 14:03:53;;;;;;;10.05;2.60;;;7.20;99.90;;;;;;4861169;29;94547;-76
2021/12/07 14:06:19;;;;;;;11.52;2.38;;;7.00;99.90;;;;;;4862206;28;95438;-79
2021/12/07 14:08:45;;;;;;;9.55;2.25;;;6.90;99.90;;;;;;4861764;29;94498;-76
2021/12/07 14:11:15;;;;;;;9.98;2.40;;;6.90;99.90;;;;;;4860951;28;94587;-76
2021/12/07 14:13:43;;;;;;;10.45;2.55;;;6.80;99.90;;;;;;4859527;28;96742;-76
2021/12/07 14:16:09;;;;;;;7.57;2.63;;;6.80;99.90;;;;;;4861666;28;94475;-76
2021/12/07 14:18:35;;;;;;;9.15;2.42;;;6.90;99.90;;;;;;4861581;28;94442;-76
2021/12/07 14:21:02;;;;;;;11.05;2.13;;;6.80;99.90;;;;;;4861326;29;94483;-76
2021/12/07 14:23:29;;;;;;;12.10;2.50;;;6.70;99.90;;;;;;4861340;29;95036;-76
2021/12/07 14:26:15;;;;;;;11.93;2.05;;;6.50;99.90;;;;;;4861536;28;94414;-76
2021/12/07 14:28:46;;;;;;;8.10;1.80;;;6.20;99.90;;;;;;4861303;29;94898;-76
2021/12/07 14:31:34;;;;;;;9.93;1.98;;;5.90;99.90;;;;;;4860280;29;96243;-76
2021/12/07 14:34:02;;;;;;;7.38;1.83;;;5.50;99.90;;;;;;4860566;29;97998;-78
2021/12/07 14:36:31;;;;;;;5.15;1.42;;;5.20;99.90;;;;;;4832026;29;95081;-76
2021/12/07 14:39:13;;;;;;;4.80;1.65;;;5.00;99.90;;;;;;4841201;29;94392;-75
2021/12/07 14:41:51;;;;;;;8.23;2.35;;;4.90;99.90;;;;;;4839660;29;98445;-75
2021/12/07 14:44:19;;;;;;;4.90;2.75;;;4.80;99.90;;;;;;4842406;29;94463;-74
2021/12/07 14:46:47;;;;;;;8.45;2.70;;;4.70;99.90;;;;;;4842566;29;94367;-76
2021/12/07 14:49:13;;;;;;;6.55;2.88;;;4.60;99.90;;;;;;4856296;29;93837;-77
2021/12/07 14:51:40;;;;;;;9.63;2.92;;;4.50;99.90;;;;;;4841004;29;95253;-75
2021/12/07 14:54:06;;;;;;;10.02;3.05;;;4.40;99.90;;;;;;4849337;29;94584;-78
2021/12/07 14:56:34;;;;;;;10.18;3.25;;;4.30;99.90;;;;;;4859982;29;95434;-79
2021/12/07 14:59:04;;;;;;;13.52;2.97;;;4.20;99.90;;;;;;4843612;29;94458;-76
2021/12/07 15:01:33;;;;;;;6.43;2.20;;;4.10;99.90;;;;;;4859334;29;94637;-76
2021/12/07 15:04:01;;;;;;;8.10;2.50;;;4.00;99.90;;;;;;4851426;29;98005;-77
2021/12/07 15:06:30;;;;;;;7.97;2.50;;;3.80;99.90;;;;;;4852441;29;94742;-76
2021/12/07 15:08:59;;;;;;;6.45;2.80;;;3.60;99.90;;;;;;4845524;29;94554;-76
2021/12/07 15:11:25;;;;;;;8.43;2.90;;;3.40;99.90;;;;;;4844943;29;95683;-74
2021/12/07 15:13:51;;;;;;;11.95;3.70;;;3.20;99.90;;;;;;4844920;29;94056;-76
2021/12/07 15:16:17;;;;;;;10.63;4.45;;;3.10;99.90;;;;;;4855625;29;94410;-74
2021/12/07 15:18:48;;;;;;;8.77;3.83;;;2.90;99.90;;;;;;4845246;29;94543;-77
2021/12/07 15:21:22;;;;;;;11.02;4.03;;;2.80;99.90;;;;;;4846707;29;99252;-78
2021/12/07 15:23:53;;;;;;;14.68;5.05;;;2.70;99.90;;;;;;4859204;28;96131;-77
2021/12/07 15:26:22;;;;;;;19.70;8.88;;;2.60;99.90;;;;;;4844509;29;94431;-74
2021/12/07 15:29:01;;;;;;;24.67;10.07;;;2.60;99.90;;;;;;4854403;28;94741;-75
2021/12/07 15:31:30;;;;;;;23.90;8.90;;;2.70;99.90;;;;;;4850030;29;94599;-75
2021/12/07 15:33:57;;;;;;;15.25;7.50;;;2.60;99.90;;;;;;4844984;29;95202;-74
2021/12/07 15:36:26;;;;;;;14.50;6.35;;;2.60;99.90;;;;;;4858925;29;94481;-76
2021/12/07 15:39:07;;;;;;;15.07;6.70;;;2.60;99.90;;;;;;4852613;28;93887;-74
2021/12/07 15:41:32;;;;;;;20.48;7.50;;;2.60;99.90;;;;;;4840113;29;95232;-74
2021/12/07 15:43:59;;;;;;;14.95;6.80;;;2.60;99.90;;;;;;4840853;29;94444;-73
2021/12/07 15:46:25;;;;;;;14.35;5.90;;;2.50;99.90;;;;;;4841214;29;95862;-75
2021/12/07 15:48:51;;;;;;;12.82;5.40;;;2.40;99.90;;;;;;4851685;29;94325;-73
2021/12/07 15:51:17;;;;;;;15.10;5.43;;;2.30;99.90;;;;;;4858089;29;95267;-76
2021/12/07 15:53:42;;;;;;;12.10;5.32;;;2.20;99.90;;;;;;4858043;29;97469;-73
2021/12/07 15:56:17;;;;;;;13.30;4.80;;;2.10;99.90;;;;;;4859731;29;94515;-75
2021/12/07 15:58:44;;;;;;;13.43;4.80;;;2.00;99.90;;;;;;4860283;29;94533;-74
2021/12/07 16:01:10;;;;;;;12.35;5.07;;;1.80;99.90;;;;;;4858614;29;94991;-76
2021/12/07 16:03:44;;;;;;;15.70;5.35;;;1.70;99.90;;;;;;4859532;29;94160;-73
2021/12/07 16:06:22;;;;;;;13.20;4.93;;;1.60;99.90;;;;;;4859565;28;94557;-74
2021/12/07 16:08:49;;;;;;;11.63;4.97;;;1.60;99.90;;;;;;4859196;29;94424;-74
2021/12/07 16:11:18;;;;;;;11.82;5.10;;;1.60;99.90;;;;;;4858234;29;95332;-73
2021/12/07 16:13:52;;;;;;;12.15;4.90;;;1.50;99.90;;;;;;4858807;29;96356;-74
2021/12/07 16:16:20;;;;;;;13.00;5.63;;;1.50;99.90;;;;;;4858241;29;94530;-73
2021/12/07 16:18:47;;;;;;;12.98;4.90;;;1.40;99.90;;;;;;4859362;29;94856;-74
2021/12/07 16:21:14;;;;;;;11.13;4.82;;;1.30;99.90;;;;;;4858701;29;94507;-74
2021/12/07 16:23:43;;;;;;;11.18;4.22;;;1.30;99.90;;;;;;4858879;29;94568;-75
2021/12/07 16:26:10;;;;;;;10.13;4.82;;;1.20;99.90;;;;;;4859382;28;94564;-76
2021/12/07 16:28:48;;;;;;;8.05;3.42;;;1.20;99.90;;;;;;4859603;28;93589;-73
2021/12/07 16:31:15;;;;;;;7.07;3.95;;;1.20;99.90;;;;;;4855672;29;98614;-74
2021/12/07 16:33:42;;;;;;;5.75;3.58;;;1.10;99.90;;;;;;4857189;29;94447;-75
2021/12/07 16:36:09;;;;;;;11.00;4.60;;;1.00;99.90;;;;;;4843496;28;95540;-82
2021/12/07 16:38:35;;;;;;;9.20;4.75;;;1.00;99.90;;;;;;4857637;29;94511;-78
2021/12/07 16:41:02;;;;;;;11.50;5.40;;;0.90;99.90;;;;;;4857565;28;94836;-74
2021/12/07 16:43:27;;;;;;;12.32;5.32;;;0.80;99.90;;;;;;4848381;28;94471;-74
2021/12/07 16:45:53;;;;;;;14.02;6.47;;;0.70;99.90;;;;;;4840398;29;94698;-74
2021/12/07 16:48:20;;;;;;;14.00;7.15;;;0.60;99.90;;;;;;4840459;29;94493;-74
2021/12/07 16:50:48;;;;;;;16.05;7.68;;;0.60;99.90;;;;;;4838410;29;94655;-84
2021/12/07 16:53:13;;;;;;;17.50;8.40;;;0.50;99.90;;;;;;4856979;29;96502;-73
2021/12/07 16:55:40;;;;;;;17.60;8.63;;;0.40;99.90;;;;;;4842364;29;94605;-75
2021/12/07 16:58:06;;;;;;;14.98;8.95;;;0.40;99.90;;;;;;4840863;29;94449;-73
2021/12/07 17:00:34;;;;;;;21.50;9.55;;;0.40;99.90;;;;;;4847642;29;95458;-77
2021/12/07 17:02:59;;;;;;;18.92;9.70;;;0.40;99.90;;;;;;4853498;29;95113;-74
2021/12/07 17:05:28;;;;;;;18.27;9.73;;;0.30;99.90;;;;;;4842389;29;94662;-75
2021/12/07 17:07:55;;;;;;;20.13;9.45;;;0.20;99.90;;;;;;4858709;29;94577;-77
2021/12/07 17:10:22;;;;;;;18.65;9.43;;;0.20;99.90;;;;;;4866824;28;94656;-81
2021/12/07 17:12:49;;;;;;;23.60;11.57;;;0.20;99.90;;;;;;4885714;28;94321;-83
2021/12/07 17:15:15;;;;;;;27.60;12.70;;;0.20;99.90;;;;;;4875863;29;94447;-76
2021/12/07 17:17:41;;;;;;;30.58;13.98;;;0.20;99.90;;;;;;4860307;29;94426;-76
2021/12/07 17:20:08;;;;;;;28.15;12.75;;;0.30;99.90;;;;;;4856171;29;96872;-77
2021/12/07 17:22:35;;;;;;;19.65;11.55;;;0.40;99.90;;;;;;4847336;29;97009;-78
2021/12/07 17:25:01;;;;;;;19.15;10.35;;;0.40;99.90;;;;;;4862374;28;95402;-77
2021/12/07 17:27:26;;;;;;;18.10;9.75;;;0.40;99.90;;;;;;4861359;28;94505;-78
2021/12/07 17:29:53;;;;;;;18.88;9.68;;;0.40;99.90;;;;;;4861463;29;95575;-77
2021/12/07 17:32:19;;;;;;;22.73;13.25;;;0.40;99.90;;;;;;4863823;29;95012;-82
2021/12/07 17:34:46;;;;;;;29.90;12.80;;;0.50;99.90;;;;;;4854558;29;94502;-81
2021/12/07 17:37:12;;;;;;;25.38;14.15;;;0.40;99.90;;;;;;4854082;29;94638;-81
2021/12/07 17:39:39;;;;;;;23.75;12.18;;;0.40;99.90;;;;;;4847415;29;98334;-77
2021/12/07 17:42:05;;;;;;;25.05;10.40;;;0.30;99.90;;;;;;4859205;29;94810;-76
2021/12/07 17:44:31;;;;;;;22.17;10.80;;;0.30;99.90;;;;;;4856278;28;94763;-77
2021/12/07 17:46:57;;;;;;;24.50;10.60;;;0.30;99.90;;;;;;4849912;29;94484;-77
2021/12/07 17:49:24;;;;;;;17.00;9.95;;;0.20;99.90;;;;;;4847989;29;97857;-78
2021/12/07 17:51:52;;;;;;;21.02;10.80;;;0.20;99.90;;;;;;4857870;29;96163;-78
2021/12/07 17:54:19;;;;;;;24.67;12.23;;;0.00;99.90;;;;;;4857641;28;94501;-77
2021/12/07 17:56:45;;;;;;;22.90;11.98;;;0.00;99.90;;;;;;4858593;29;94527;-76
2021/12/07 17:59:10;;;;;;;23.70;12.77;;;0.00;99.90;;;;;;4851952;29;95794;-78
2021/12/07 18:01:36;;;;;;;22.27;10.98;;;-0.10;99.90;;;;;;4856830;29;94746;-77
2021/12/07 18:04:03;;;;;;;19.02;10.65;;;-0.10;99.90;;;;;;4860565;28;94552;-77
2021/12/07 18:06:29;;;;;;;18.85;10.20;;;-0.10;99.90;;;;;;4861933;28;93830;-77
2021/12/07 18:08:54;;;;;;;20.75;10.40;;;-0.20;99.90;;;;;;4859853;29;94569;-76
2021/12/07 18:11:20;;;;;;;26.73;12.52;;;-0.20;99.90;;;;;;4859687;29;94767;-76
2021/12/07 18:13:46;;;;;;;27.98;13.98;;;-0.10;99.90;;;;;;4858413;28;95514;-75
2021/12/07 18:16:14;;;;;;;28.13;13.10;;;-0.10;99.90;;;;;;4860076;29;94548;-76
2021/12/07 18:18:41;;;;;;;26.38;12.90;;;-0.10;99.90;;;;;;4857977;29;97256;-75
2021/12/07 18:21:07;;;;;;;26.45;13.27;;;-0.10;99.90;;;;;;4858816;29;95994;-75
2021/12/07 18:23:34;;;;;;;25.65;11.18;;;0.00;99.90;;;;;;4859819;28;94514;-75
2021/12/07 18:26:00;;;;;;;17.48;8.65;;;0.00;99.90;;;;;;4859386;28;94358;-76
2021/12/07 18:28:26;;;;;;;30.30;16.20;;;0.10;99.90;;;;;;4857575;29;95269;-76
2021/12/07 18:30:54;;;;;;;25.40;15.85;;;0.20;99.90;;;;;;4859832;29;95072;-77
2021/12/07 18:33:29;;;;;;;30.38;18.02;;;0.20;99.90;;;;;;4860223;28;94587;-76
2021/12/07 18:35:56;;;;;;;32.50;17.15;;;0.30;99.90;;;;;;4856805;29;94439;-77
2021/12/07 18:38:25;;;;;;;23.40;13.23;;;0.30;99.90;;;;;;4854604;29;96401;-78
2021/12/07 18:40:52;;;;;;;20.58;12.98;;;0.30;99.90;;;;;;4855414;29;94974;-76